Time;durP1;ratioP1;P1;durP2;ratioP2;P2;SDS_P1;SDS_P2;PMS_P1;PMS_P2;Temp;Humidity;BMP_temperature;BMP_pressure;BME280_temperature;BME280_humidity;BME280_pressure;Samples;Min_cycle;Max_cycle;Signal;HPM_P1;HPM_P2
2023/12/04 00:00:16;;;;;;;;;;;;;;;0.53;100.00;101089.63;5115677;28;19922;-41
2023/12/04 00:02:41;;;;;;;;;;;;;;;0.58;100.00;101088.34;5113958;28;20018;-41
2023/12/04 00:05:07;;;;;;;;;;;;;;;0.59;100.00;101089.19;5113961;28;19922;-43
2023/12/04 00:07:32;;;;;;;;;;;;;;;0.55;100.00;101079.75;5113680;28;19920;-41
2023/12/04 00:09:57;;;;;;;;;;;;;;;0.51;100.00;101081.78;5112601;28;19924;-43
2023/12/04 00:12:23;;;;;;;;;;;;;;;0.53;100.00;101081.69;5113113;28;19988;-43
2023/12/04 00:14:48;;;;;;;;;;;;;;;0.56;100.00;101070.88;5113827;28;19920;-43
2023/12/04 00:17:13;;;;;;;;;;;;;;;0.53;100.00;101068.44;5113348;28;19920;-42
2023/12/04 00:19:38;;;;;;;;;;;;;;;0.53;100.00;101064.00;5112815;28;19980;-43
2023/12/04 00:22:04;;;;;;;;;;;;;;;0.53;100.00;101069.28;5113146;28;19924;-42
2023/12/04 00:24:29;;;;;;;;;;;;;;;0.50;100.00;101066.88;5113833;28;19984;-42
2023/12/04 00:26:54;;;;;;;;;;;;;;;0.49;100.00;101057.22;5113059;28;20007;-41
2023/12/04 00:29:19;;;;;;;;;;;;;;;0.55;100.00;101056.75;5113257;28;20323;-44
2023/12/04 00:31:45;;;;;;;;;;;;;;;0.52;100.00;101056.97;5112958;28;20267;-44
2023/12/04 00:34:12;;;;;;;;;;;;;;;0.48;100.00;101054.69;5113601;28;19933;-44
2023/12/04 00:36:37;;;;;;;;;;;;;;;0.41;100.00;101048.97;5113395;28;20319;-42
2023/12/04 00:39:03;;;;;;;;;;;;;;;0.42;100.00;101045.38;5112745;28;19919;-41
2023/12/04 00:41:29;;;;;;;;;;;;;;;0.42;100.00;101042.72;5112883;28;19963;-43
2023/12/04 00:43:54;;;;;;;;;;;;;;;0.42;100.00;101040.06;5112912;28;19927;-43
2023/12/04 00:46:19;;;;;;;;;;;;;;;0.44;100.00;101043.47;5112720;28;19920;-43
2023/12/04 00:48:46;;;;;;;;;;;;;;;0.48;100.00;101036.16;5112761;28;19955;-41
2023/12/04 00:51:11;;;;;;;;;;;;;;;0.47;100.00;101048.53;5112610;28;20460;-43
2023/12/04 00:53:36;;;;;;;;;;;;;;;0.47;100.00;101027.34;5112870;28;20014;-42
2023/12/04 00:56:01;;;;;;;;;;;;;;;0.45;100.00;101026.63;5112382;28;19927;-43
2023/12/04 00:58:27;;;;;;;;;;;;;;;0.43;100.00;101021.44;5113032;28;19919;-42
2023/12/04 01:00:52;;;;;;;;;;;;;;;0.44;100.00;101011.69;5112643;28;19920;-41
2023/12/04 01:03:17;;;;;;;;;;;;;;;0.44;100.00;101011.69;5112979;28;20309;-42
2023/12/04 01:05:42;;;;;;;;;;;;;;;0.44;100.00;101012.53;5112882;28;19942;-42
2023/12/04 01:08:07;;;;;;;;;;;;;;;0.44;100.00;101003.75;5113023;28;20008;-42
2023/12/04 01:10:33;;;;;;;;;;;;;;;0.45;100.00;100997.50;5112876;28;19963;-41
2023/12/04 01:12:58;;;;;;;;;;;;;;;0.53;100.00;101002.25;5112873;28;19943;-42
2023/12/04 01:15:23;;;;;;;;;;;;;;;0.49;100.00;100977.78;5112836;28;19924;-42
2023/12/04 01:17:49;;;;;;;;;;;;;;;0.48;100.00;100981.38;5112947;28;20374;-41
2023/12/04 01:20:14;;;;;;;;;;;;;;;0.45;100.00;100978.97;5113235;28;19923;-41
2023/12/04 01:22:39;;;;;;;;;;;;;;;0.41;100.00;100980.13;5111616;28;19959;-41
2023/12/04 01:25:04;;;;;;;;;;;;;;;0.41;100.00;100990.72;5112079;28;19971;-41
2023/12/04 01:27:30;;;;;;;;;;;;;;;0.42;100.00;100985.34;5111573;28;19920;-42
2023/12/04 01:29:55;;;;;;;;;;;;;;;0.47;100.00;100995.56;5112449;28;19927;-42
2023/12/04 01:32:20;;;;;;;;;;;;;;;0.47;100.00;100984.13;5116978;28;20297;-41
2023/12/04 01:34:46;;;;;;;;;;;;;;;0.51;100.00;100980.31;5115641;28;19970;-40
2023/12/04 01:37:11;;;;;;;;;;;;;;;0.50;100.00;100979.47;5116547;28;20301;-41
2023/12/04 01:39:36;;;;;;;;;;;;;;;0.51;100.00;100967.91;5115327;28;19927;-40
2023/12/04 01:42:02;;;;;;;;;;;;;;;0.50;100.00;100960.06;5113968;28;19928;-40
2023/12/04 01:44:27;;;;;;;;;;;;;;;0.51;100.00;100962.63;5112111;28;19927;-40
2023/12/04 01:46:53;;;;;;;;;;;;;;;0.55;100.00;100965.88;5112507;28;19927;-40
2023/12/04 01:49:18;;;;;;;;;;;;;;;0.56;100.00;100957.81;5111715;28;19927;-40
2023/12/04 01:51:43;;;;;;;;;;;;;;;0.61;100.00;100949.53;5111552;28;19920;-41
2023/12/04 01:54:09;;;;;;;;;;;;;;;0.61;100.00;100947.72;5110783;28;20011;-40
2023/12/04 01:56:34;;;;;;;;;;;;;;;0.63;100.00;100943.16;5112058;28;19926;-41
2023/12/04 01:58:59;;;;;;;;;;;;;;;0.63;100.00;100940.53;5110824;28;20063;-40
2023/12/04 02:01:25;;;;;;;;;;;;;;;0.62;100.00;100941.47;5112878;28;19941;-40
2023/12/04 02:03:50;;;;;;;;;;;;;;;0.67;100.00;100942.94;5116344;28;19941;-40
2023/12/04 02:06:16;;;;;;;;;;;;;;;0.67;100.00;100927.03;5117155;28;19920;-41
2023/12/04 02:08:41;;;;;;;;;;;;;;;0.70;100.00;100919.69;5113549;28;20039;-40
2023/12/04 02:11:06;;;;;;;;;;;;;;;0.71;100.00;100924.06;5111490;28;19971;-41
2023/12/04 02:13:32;;;;;;;;;;;;;;;0.73;100.00;100921.28;5112182;28;19916;-40
2023/12/04 02:15:57;;;;;;;;;;;;;;;0.76;100.00;100911.28;5111867;28;19920;-41
2023/12/04 02:18:22;;;;;;;;;;;;;;;0.78;100.00;100903.22;5110544;28;19920;-42
2023/12/04 02:20:48;;;;;;;;;;;;;;;0.84;100.00;100900.09;5110931;28;19920;-40
2023/12/04 02:23:13;;;;;;;;;;;;;;;0.84;100.00;100902.75;5112373;28;20386;-40
2023/12/04 02:25:38;;;;;;;;;;;;;;;0.89;100.00;100897.94;5111932;28;19920;-41
2023/12/04 02:28:08;;;;;;;;;;;;;;;0.94;100.00;100893.13;5111108;28;19920;-40
2023/12/04 02:30:34;;;;;;;;;;;;;;;0.96;100.00;100891.22;5110665;28;20023;-39
2023/12/04 02:33:00;;;;;;;;;;;;;;;1.00;100.00;100876.78;5110982;28;19931;-40
2023/12/04 02:35:26;;;;;;;;;;;;;;;1.03;100.00;100873.88;5114340;28;19920;-40
2023/12/04 02:37:51;;;;;;;;;;;;;;;1.01;100.00;100870.50;5114843;28;20286;-40
2023/12/04 02:40:16;;;;;;;;;;;;;;;1.04;100.00;100872.91;5115687;28;20293;-40
2023/12/04 02:42:42;;;;;;;;;;;;;;;1.03;100.00;100865.94;5115015;28;20204;-39
2023/12/04 02:45:07;;;;;;;;;;;;;;;1.04;100.00;100867.59;5116579;28;19916;-40
2023/12/04 02:47:32;;;;;;;;;;;;;;;1.04;100.00;100867.59;5117295;28;19926;-42
2023/12/04 02:49:58;;;;;;;;;;;;;;;1.05;100.00;100864.00;5118053;28;20002;-40
2023/12/04 02:52:23;;;;;;;;;;;;;;;1.08;100.00;100852.31;5117351;28;19919;-39
2023/12/04 02:54:48;;;;;;;;;;;;;;;1.09;100.00;100849.53;5116736;28;19942;-39
2023/12/04 02:57:13;;;;;;;;;;;;;;;1.07;100.00;100851.44;5117610;28;20300;-40
2023/12/04 02:59:38;;;;;;;;;;;;;;;1.05;100.00;100848.09;5119878;28;19920;-40
2023/12/04 03:02:04;;;;;;;;;;;;;;;1.06;100.00;100833.88;5120336;28;19942;-39
2023/12/04 03:04:29;;;;;;;;;;;;;;;1.06;100.00;100835.69;5116038;28;19919;-40
2023/12/04 03:06:55;;;;;;;;;;;;;;;1.05;100.00;100824.25;5116002;28;19927;-40
2023/12/04 03:09:20;;;;;;;;;;;;;;;1.05;100.00;100826.03;5115557;28;19927;-39
2023/12/04 03:11:45;;;;;;;;;;;;;;;1.05;100.00;100820.72;5116613;28;19920;-39
2023/12/04 03:14:10;;;;;;;;;;;;;;;1.09;100.00;100811.59;5118084;28;19919;-40
2023/12/04 03:16:36;;;;;;;;;;;;;;;1.05;100.00;100820.72;5118770;28;19978;-39
2023/12/04 03:19:01;;;;;;;;;;;;;;;1.02;100.00;100815.69;5116560;28;19926;-39
2023/12/04 03:21:26;;;;;;;;;;;;;;;1.05;100.00;100802.19;5116338;28;19920;-39
2023/12/04 03:23:51;;;;;;;;;;;;;;;1.05;100.00;100797.75;5117744;28;20445;-39
2023/12/04 03:26:16;;;;;;;;;;;;;;;1.07;100.00;100793.16;5119082;28;19927;-40
2023/12/04 03:28:42;;;;;;;;;;;;;;;1.07;100.00;100784.34;5117187;28;19920;-39
2023/12/04 03:31:07;;;;;;;;;;;;;;;1.07;100.00;100781.72;5113818;28;19928;-40
2023/12/04 03:33:32;;;;;;;;;;;;;;;1.03;100.00;100781.13;5117633;28;19920;-39
2023/12/04 03:35:59;;;;;;;;;;;;;;;1.04;100.00;100777.50;5117410;28;19920;-40
2023/12/04 03:38:24;;;;;;;;;;;;;;;1.06;100.00;100772.09;5115453;28;19916;-40
2023/12/04 03:40:49;;;;;;;;;;;;;;;1.06;100.00;100770.28;5115046;28;19927;-39
2023/12/04 03:43:14;;;;;;;;;;;;;;;1.08;100.00;100768.34;5114953;28;19920;-39
2023/12/04 03:45:40;;;;;;;;;;;;;;;1.07;100.00;100758.69;5112225;28;19919;-42
2023/12/04 03:48:05;;;;;;;;;;;;;;;1.06;100.00;100764.97;5114343;28;19960;-39
2023/12/04 03:50:30;;;;;;;;;;;;;;;1.07;100.00;100766.63;5114636;28;19932;-39
2023/12/04 03:52:55;;;;;;;;;;;;;;;1.12;100.00;100757.50;5114558;28;19920;-40
2023/12/04 03:55:21;;;;;;;;;;;;;;;1.18;100.00;100751.69;5116690;28;19933;-39
2023/12/04 03:57:46;;;;;;;;;;;;;;;1.21;100.00;100743.47;5117021;28;19972;-39
2023/12/04 04:00:11;;;;;;;;;;;;;;;1.24;100.00;100745.91;5116633;28;19926;-40
2023/12/04 04:02:38;;;;;;;;;;;;;;;1.26;100.00;100741.31;5115967;28;20331;-39
2023/12/04 04:05:04;;;;;;;;;;;;;;;1.27;100.00;100729.75;5115445;28;20361;-40
2023/12/04 04:07:29;;;;;;;;;;;;;;;1.29;100.00;100728.66;5115257;28;19927;-40
2023/12/04 04:09:54;;;;;;;;;;;;;;;1.29;100.00;100727.78;5115287;28;19965;-40
2023/12/04 04:12:19;;;;;;;;;;;;;;;1.30;100.00;100724.19;5115726;28;19927;-39
2023/12/04 04:14:45;;;;;;;;;;;;;;;1.31;100.00;100732.00;5114762;28;20352;-40
2023/12/04 04:17:10;;;;;;;;;;;;;;;1.35;100.00;100718.53;5118068;28;20413;-39
2023/12/04 04:19:35;;;;;;;;;;;;;;;1.35;100.00;100722.00;5119545;28;19963;-39
2023/12/04 04:22:00;;;;;;;;;;;;;;;1.42;100.00;100706.44;5115878;28;19920;-39
2023/12/04 04:24:26;;;;;;;;;;;;;;;1.42;100.00;100709.06;5116104;28;20019;-39
2023/12/04 04:26:51;;;;;;;;;;;;;;;1.40;100.00;100700.44;5118777;28;19951;-39
2023/12/04 04:29:16;;;;;;;;;;;;;;;1.44;100.00;100700.03;5114879;28;19966;-39
2023/12/04 04:31:41;;;;;;;;;;;;;;;1.48;100.00;100706.78;5113754;28;19943;-39
2023/12/04 04:34:06;;;;;;;;;;;;;;;1.53;100.00;100704.59;5114485;28;19920;-39
2023/12/04 04:36:32;;;;;;;;;;;;;;;1.53;100.00;100701.94;5113775;28;19965;-39
2023/12/04 04:38:57;;;;;;;;;;;;;;;1.57;100.00;100712.28;5113922;28;19920;-39
2023/12/04 04:41:23;;;;;;;;;;;;;;;1.60;100.00;100702.25;5112879;28;20358;-38
2023/12/04 04:43:48;;;;;;;;;;;;;;;1.60;100.00;100699.59;5115450;28;19923;-39
2023/12/04 04:46:13;;;;;;;;;;;;;;;1.61;100.00;100700.47;5116606;28;19920;-39
2023/12/04 04:48:39;;;;;;;;;;;;;;;1.69;100.00;100692.72;5117199;28;19947;-38
2023/12/04 04:51:05;;;;;;;;;;;;;;;1.74;100.00;100690.50;5114134;28;19965;-39
2023/12/04 04:53:30;;;;;;;;;;;;;;;1.75;100.00;100670.97;5112286;28;20297;-39
2023/12/04 04:55:55;;;;;;;;;;;;;;;1.81;100.00;100681.03;5114599;28;19937;-39
2023/12/04 04:58:20;;;;;;;;;;;;;;;1.80;100.00;100660.81;5112232;28;19945;-39
2023/12/04 05:00:46;;;;;;;;;;;;;;;1.82;100.00;100648.25;5115425;28;19920;-39
2023/12/04 05:03:12;;;;;;;;;;;;;;;1.81;100.00;100661.63;5115873;27;19919;-39
2023/12/04 05:05:37;;;;;;;;;;;;;;;1.76;100.00;100656.72;5115610;28;19931;-39
2023/12/04 05:08:02;;;;;;;;;;;;;;;1.77;100.00;100655.75;5113114;28;19928;-39
2023/12/04 05:10:27;;;;;;;;;;;;;;;1.80;100.00;100658.16;5111443;28;19920;-40
2023/12/04 05:12:52;;;;;;;;;;;;;;;1.75;100.00;100653.22;5111223;28;20001;-39
2023/12/04 05:15:18;;;;;;;;;;;;;;;1.75;100.00;100647.06;5111416;28;20002;-39
2023/12/04 05:17:43;;;;;;;;;;;;;;;1.77;100.00;100647.78;5111145;28;19924;-40
2023/12/04 05:20:08;;;;;;;;;;;;;;;1.73;100.00;100646.34;5110914;28;19946;-39
2023/12/04 05:22:34;;;;;;;;;;;;;;;1.69;100.00;100640.47;5110845;28;19919;-40
2023/12/04 05:24:59;;;;;;;;;;;;;;;1.72;100.00;100634.06;5110599;28;19963;-40
2023/12/04 05:27:24;;;;;;;;;;;;;;;1.72;100.00;100636.72;5110874;28;19982;-39
2023/12/04 05:29:50;;;;;;;;;;;;;;;1.70;100.00;100636.00;5109852;28;19962;-40
2023/12/04 05:32:15;;;;;;;;;;;;;;;1.67;100.00;100641.59;5109346;28;19934;-40
2023/12/04 05:34:40;;;;;;;;;;;;;;;1.69;100.00;100618.44;5112240;28;19942;-39
2023/12/04 05:37:05;;;;;;;;;;;;;;;1.77;100.00;100628.38;5116217;28;19968;-40
2023/12/04 05:39:30;;;;;;;;;;;;;;;1.82;100.00;100623.50;5113108;28;19927;-40
2023/12/04 05:41:56;;;;;;;;;;;;;;;1.77;100.00;100618.63;5110021;28;19965;-39
2023/12/04 05:44:21;;;;;;;;;;;;;;;1.81;100.00;100635.09;5111323;28;19959;-41
2023/12/04 05:46:46;;;;;;;;;;;;;;;1.78;100.00;100641.50;5111075;28;19920;-39
2023/12/04 05:49:12;;;;;;;;;;;;;;;1.79;100.00;100645.00;5111121;28;20601;-40
2023/12/04 05:51:37;;;;;;;;;;;;;;;1.82;100.00;100636.78;5109914;28;20400;-39
2023/12/04 05:54:02;;;;;;;;;;;;;;;1.83;100.00;100628.69;5111907;28;20270;-42
2023/12/04 05:56:27;;;;;;;;;;;;;;;1.82;100.00;100616.41;5112703;28;20285;-39
2023/12/04 05:58:53;;;;;;;;;;;;;;;1.87;100.00;100621.31;5109429;28;19916;-40
2023/12/04 06:01:18;;;;;;;;;;;;;;;1.82;100.00;100623.50;5111008;28;19920;-41
2023/12/04 06:03:43;;;;;;;;;;;;;;;1.84;100.00;100618.91;5113128;28;19969;-40
2023/12/04 06:06:09;;;;;;;;;;;;;;;1.81;100.00;100621.84;5112599;28;19934;-40
2023/12/04 06:08:34;;;;;;;;;;;;;;;1.84;100.00;100611.78;5112394;28;19934;-39
2023/12/04 06:10:59;;;;;;;;;;;;;;;1.87;100.00;100605.38;5116749;28;20247;-39
2023/12/04 06:13:24;;;;;;;;;;;;;;;1.83;100.00;100604.81;5115859;28;19958;-39
2023/12/04 06:15:50;;;;;;;;;;;;;;;1.91;100.00;100602.34;5119404;28;19916;-41
2023/12/04 06:18:15;;;;;;;;;;;;;;;1.91;100.00;100596.19;5122494;28;19966;-39
2023/12/04 06:20:40;;;;;;;;;;;;;;;1.87;100.00;100592.97;5120973;28;19916;-40
2023/12/04 06:23:05;;;;;;;;;;;;;;;1.80;100.00;100583.84;5116738;28;19924;-39
2023/12/04 06:25:31;;;;;;;;;;;;;;;1.81;100.00;100593.47;5116735;28;19926;-38
2023/12/04 06:27:56;;;;;;;;;;;;;;;1.83;100.00;100588.88;5117048;27;19943;-39
2023/12/04 06:30:21;;;;;;;;;;;;;;;1.77;100.00;100586.78;5116530;28;19962;-39
2023/12/04 06:32:47;;;;;;;;;;;;;;;1.79;100.00;100587.50;5116304;28;20045;-39
2023/12/04 06:35:12;;;;;;;;;;;;;;;1.80;100.00;100575.88;5114841;28;19939;-40
2023/12/04 06:37:38;;;;;;;;;;;;;;;1.84;100.00;100573.81;5115143;28;19971;-39
2023/12/04 06:40:04;;;;;;;;;;;;;;;1.81;100.00;100566.13;5115936;28;19928;-40
2023/12/04 06:42:29;;;;;;;;;;;;;;;1.77;100.00;100573.50;5114963;28;19920;-39
2023/12/04 06:44:55;;;;;;;;;;;;;;;1.78;100.00;100569.88;5115873;28;19923;-39
2023/12/04 06:47:22;;;;;;;;;;;;;;;1.83;100.00;100566.81;5114139;28;19924;-39
2023/12/04 06:49:47;;;;;;;;;;;;;;;1.82;100.00;100566.00;5114717;28;20322;-38
2023/12/04 06:52:12;;;;;;;;;;;;;;;1.80;100.00;100564.44;5113780;28;20437;-39
2023/12/04 06:54:37;;;;;;;;;;;;;;;1.80;100.00;100557.31;5113924;28;19959;-39
2023/12/04 06:57:03;;;;;;;;;;;;;;;1.84;100.00;100571.16;5114671;28;19920;-39
2023/12/04 06:59:28;;;;;;;;;;;;;;;1.88;100.00;100562.81;5115241;28;19915;-40
2023/12/04 07:01:53;;;;;;;;;;;;;;;1.85;100.00;100557.75;5115952;28;19959;-38
2023/12/04 07:04:20;;;;;;;;;;;;;;;1.82;100.00;100555.38;5113904;28;19923;-39
2023/12/04 07:06:46;;;;;;;;;;;;;;;1.88;100.00;100556.66;5115117;28;19920;-40
2023/12/04 07:09:11;;;;;;;;;;;;;;;1.91;100.00;100554.56;5115282;28;20465;-39
2023/12/04 07:11:36;;;;;;;;;;;;;;;1.86;100.00;100551.47;5117516;28;19922;-40
2023/12/04 07:14:01;;;;;;;;;;;;;;;1.87;100.00;100553.16;5121027;28;19924;-40
2023/12/04 07:16:27;;;;;;;;;;;;;;;1.84;100.00;100542.78;5122719;28;19915;-40
2023/12/04 07:18:52;;;;;;;;;;;;;;;1.82;100.00;100536.81;5120902;28;20326;-40
2023/12/04 07:21:18;;;;;;;;;;;;;;;1.80;100.00;100535.25;5113431;28;19923;-39
2023/12/04 07:23:43;;;;;;;;;;;;;;;1.79;100.00;100534.41;5117579;28;19946;-40
2023/12/04 07:26:08;;;;;;;;;;;;;;;1.77;100.00;100536.34;5119493;28;19922;-40
2023/12/04 07:28:34;;;;;;;;;;;;;;;1.83;100.00;100525.19;5119190;28;20403;-38
2023/12/04 07:30:59;;;;;;;;;;;;;;;1.80;100.00;100530.78;5119272;27;19916;-40
2023/12/04 07:33:24;;;;;;;;;;;;;;;1.87;100.00;100534.59;5120712;28;20383;-40
2023/12/04 07:35:51;;;;;;;;;;;;;;;1.83;100.00;100530.50;5118410;28;19920;-38
2023/12/04 07:38:17;;;;;;;;;;;;;;;1.90;100.00;100534.31;5119525;28;20345;-39
2023/12/04 07:40:42;;;;;;;;;;;;;;;1.91;100.00;100528.03;5116155;28;19923;-39
2023/12/04 07:43:07;;;;;;;;;;;;;;;1.91;100.00;100527.19;5116057;28;20389;-40
2023/12/04 07:45:34;;;;;;;;;;;;;;;1.94;100.00;100527.75;5115755;28;19965;-39
2023/12/04 07:48:00;;;;;;;;;;;;;;;2.03;100.00;100530.56;5105025;28;19919;-39
2023/12/04 07:50:25;;;;;;;;;;;;;;;2.02;100.00;100531.56;5117182;28;20065;-39
2023/12/04 07:52:50;;;;;;;;;;;;;;;2.05;100.00;100523.31;5111752;28;20006;-40
2023/12/04 07:55:15;;;;;;;;;;;;;;;2.04;100.00;100526.97;5114088;28;20297;-40
2023/12/04 07:57:41;;;;;;;;;;;;;;;2.03;100.00;100530.56;5109375;28;20014;-40
2023/12/04 08:00:06;;;;;;;;;;;;;;;2.08;100.00;100528.34;5113703;27;21208;-39
2023/12/04 08:02:31;;;;;;;;;;;;;;;2.09;100.00;100532.72;5114588;28;19916;-39
2023/12/04 08:04:57;;;;;;;;;;;;;;;2.06;100.00;100531.16;5112017;28;19920;-40
2023/12/04 08:07:22;;;;;;;;;;;;;;;2.06;100.00;100530.34;5110651;28;19951;-39
2023/12/04 08:09:47;;;;;;;;;;;;;;;2.10;100.00;100521.94;5114379;28;19931;-39
2023/12/04 08:12:12;;;;;;;;;;;;;;;2.10;100.00;100524.59;5111804;28;19931;-39
2023/12/04 08:14:37;;;;;;;;;;;;;;;2.11;100.00;100520.16;5084050;28;19923;-41
2023/12/04 08:17:03;;;;;;;;;;;;;;;2.11;100.00;100522.81;5077061;28;20075;-41
2023/12/04 08:19:28;;;;;;;;;;;;;;;2.13;100.00;100511.06;5074587;28;19927;-41
2023/12/04 08:21:53;;;;;;;;;;;;;;;2.13;100.00;100499.59;5075928;28;19963;-39
2023/12/04 08:24:18;;;;;;;;;;;;;;;2.16;100.00;100504.66;5077217;28;19928;-39
2023/12/04 08:26:47;;;;;;;;;;;;;;;2.13;100.00;100508.44;5075288;28;19977;-40
2023/12/04 08:29:12;;;;;;;;;;;;;;;2.16;100.00;100504.66;5075398;28;20404;-40
2023/12/04 08:31:37;;;;;;;;;;;;;;;2.14;100.00;100511.91;5074858;28;19928;-39
2023/12/04 08:34:02;;;;;;;;;;;;;;;2.13;100.00;100510.22;5074573;28;19927;-40
2023/12/04 08:36:27;;;;;;;;;;;;;;;2.13;100.00;100497.81;5074199;28;19928;-41
2023/12/04 08:38:53;;;;;;;;;;;;;;;2.14;100.00;100494.16;5070413;27;19967;-38
2023/12/04 08:41:18;;;;;;;;;;;;;;;2.18;100.00;100489.41;5069424;27;19999;-39
2023/12/04 08:43:43;;;;;;;;;;;;;;;2.24;100.00;100486.22;5074135;27;20362;-40
2023/12/04 08:46:11;;;;;;;;;;;;;;;2.25;100.00;100487.91;5074984;27;19927;-39
2023/12/04 08:48:36;;;;;;;;;;;;;;;2.25;100.00;100476.44;5076335;28;19930;-42
2023/12/04 08:51:02;;;;;;;;;;;;;;;2.24;100.00;100472.94;5072379;28;19941;-40
2023/12/04 08:53:27;;;;;;;;;;;;;;;2.27;100.00;100477.97;5073341;28;19937;-40
2023/12/04 08:55:52;;;;;;;;;;;;;;;2.23;100.00;100479.22;5073774;28;19920;-39
2023/12/04 08:58:18;;;;;;;;;;;;;;;2.23;100.00;100473.91;5073164;28;20312;-39
2023/12/04 09:00:44;;;;;;;;;;;;;;;2.27;100.00;100467.38;5073938;28;19981;-38
2023/12/04 09:03:10;;;;;;;;;;;;;;;2.28;100.00;100465.53;5071884;28;20266;-40
2023/12/04 09:05:35;;;;;;;;;;;;;;;2.35;100.00;100469.34;5071430;28;19927;-40
2023/12/04 09:08:01;;;;;;;;;;;;;;;2.34;100.00;100473.81;5070351;28;19939;-40
2023/12/04 09:10:26;;;;;;;;;;;;;;;2.34;100.00;100479.13;5069701;28;19937;-41
2023/12/04 09:12:54;;;;;;;;;;;;;;;2.32;100.00;100467.78;5070181;28;21384;-41
2023/12/04 09:15:19;;;;;;;;;;;;;;;2.30;100.00;100466.25;5071324;28;20638;-39
2023/12/04 09:17:44;;;;;;;;;;;;;;;2.25;100.00;100474.63;5073068;28;19966;-42
2023/12/04 09:20:10;;;;;;;;;;;;;;;2.24;100.00;100466.78;5069836;28;20010;-40
2023/12/04 09:22:38;;;;;;;;;;;;;;;2.29;100.00;100470.72;5070218;28;20028;-40
2023/12/04 09:25:04;;;;;;;;;;;;;;;2.34;100.00;100468.50;5069113;28;20019;-40
2023/12/04 09:27:29;;;;;;;;;;;;;;;2.31;100.00;100476.72;5071350;28;19989;-40
2023/12/04 09:29:54;;;;;;;;;;;;;;;2.29;100.00;100462.75;5059362;28;19931;-40
2023/12/04 09:32:19;;;;;;;;;;;;;;;2.34;100.00;100472.94;5070385;28;19981;-38
2023/12/04 09:34:45;;;;;;;;;;;;;;;2.36;100.00;100469.19;5072140;28;19985;-40
2023/12/04 09:37:10;;;;;;;;;;;;;;;2.39;100.00;100468.91;5075187;28;20430;-40
2023/12/04 09:39:35;;;;;;;;;;;;;;;2.33;100.00;100471.28;5073973;28;19954;-41
2023/12/04 09:42:00;;;;;;;;;;;;;;;2.39;100.00;100470.72;5072254;28;20294;-41
2023/12/04 09:44:26;;;;;;;;;;;;;;;2.41;100.00;100468.78;5071517;28;20082;-41
2023/12/04 09:46:51;;;;;;;;;;;;;;;2.52;100.00;100462.47;5059659;28;19938;-39
2023/12/04 09:49:18;;;;;;;;;;;;;;;2.39;100.00;100463.59;5068490;28;19928;-39
2023/12/04 09:51:43;;;;;;;;;;;;;;;2.44;100.00;100457.03;5071072;28;19969;-39
2023/12/04 09:54:08;;;;;;;;;;;;;;;2.45;100.00;100456.91;5071825;28;20362;-40
2023/12/04 09:56:34;;;;;;;;;;;;;;;2.45;100.00;100456.03;5061492;28;19935;-40
2023/12/04 09:58:59;;;;;;;;;;;;;;;2.44;100.00;100441.09;5060411;28;21070;-47
2023/12/04 10:01:25;;;;;;;;;;;;;;;2.43;100.00;100442.91;5086886;28;19959;-40
2023/12/04 10:03:50;;;;;;;;;;;;;;;2.37;100.00;100441.66;5112285;28;19919;-40
2023/12/04 10:06:17;;;;;;;;;;;;;;;2.37;100.00;100441.66;5108412;28;20037;-41
2023/12/04 10:08:42;;;;;;;;;;;;;;;2.40;100.00;100430.75;5110789;28;19935;-40
2023/12/04 10:11:08;;;;;;;;;;;;;;;2.47;100.00;100424.88;5106410;28;19924;-40
2023/12/04 10:13:33;;;;;;;;;;;;;;;2.44;100.00;100414.53;5113952;28;19919;-40
2023/12/04 10:15:58;;;;;;;;;;;;;;;2.49;100.00;100420.28;5117200;28;19919;-41
2023/12/04 10:18:24;;;;;;;;;;;;;;;2.53;100.00;100411.88;5116593;28;19920;-39
2023/12/04 10:20:54;;;;;;;;;;;;;;;2.67;100.00;100410.59;5114093;28;19919;-41
2023/12/04 10:23:19;;;;;;;;;;;;;;;2.72;100.00;100408.38;5117142;28;19924;-43
2023/12/04 10:25:45;;;;;;;;;;;;;;;2.73;100.00;100395.91;5116418;28;19920;-40
2023/12/04 10:28:11;;;;;;;;;;;;;;;2.80;100.00;100389.88;5118036;28;19973;-40
2023/12/04 10:30:36;;;;;;;;;;;;;;;3.02;100.00;100390.53;5116299;28;20290;-41
2023/12/04 10:33:03;;;;;;;;;;;;;;;3.04;100.00;100383.25;5114807;28;19927;-40
2023/12/04 10:35:29;;;;;;;;;;;;;;;3.00;100.00;100377.41;5113982;28;20023;-39
2023/12/04 10:37:55;;;;;;;;;;;;;;;3.11;100.00;100378.19;5111716;28;19984;-40
2023/12/04 10:40:27;;;;;;;;;;;;;;;3.15;100.00;100374.28;5111056;28;20002;-40
2023/12/04 10:43:15;;;;;;;;;;;;;;;3.23;100.00;100372.53;5111498;28;20430;-40
2023/12/04 10:45:41;;;;;;;;;;;;;;;3.34;100.00;100368.03;5102396;28;19961;-39
2023/12/04 10:48:07;;;;;;;;;;;;;;;3.40;100.00;100362.13;5111994;28;19974;-39
2023/12/04 10:50:37;;;;;;;;;;;;;;;3.44;100.00;100361.69;5112747;28;20037;-39
2023/12/04 10:53:04;;;;;;;;;;;;;;;3.46;100.00;100359.72;5112892;28;19931;-40
2023/12/04 10:55:29;;;;;;;;;;;;;;;3.47;100.00;100349.91;5114053;28;19919;-40
2023/12/04 10:57:54;;;;;;;;;;;;;;;3.50;100.00;100337.16;5116140;28;19920;-40
2023/12/04 11:00:21;;;;;;;;;;;;;;;3.51;100.00;100335.34;5114432;28;19920;-40
2023/12/04 11:02:48;;;;;;;;;;;;;;;3.44;100.00;100328.91;5115667;28;20458;-40
2023/12/04 11:05:19;;;;;;;;;;;;;;;3.48;100.00;100333.81;5114948;28;19928;-40
2023/12/04 11:07:46;;;;;;;;;;;;;;;3.44;100.00;100331.59;5114166;28;19924;-40
2023/12/04 11:10:11;;;;;;;;;;;;;;;3.39;100.00;100350.63;5114198;27;19919;-40
2023/12/04 11:12:36;;;;;;;;;;;;;;;3.33;100.00;100340.59;5118885;27;19920;-40
2023/12/04 11:15:02;;;;;;;;;;;;;;;3.30;100.00;100333.75;5116921;28;19928;-39
2023/12/04 11:17:27;;;;;;;;;;;;;;;3.28;100.00;100335.72;5117119;28;19979;-38
2023/12/04 11:19:59;;;;;;;;;;;;;;;3.26;100.00;100335.00;5115366;28;20357;-39
2023/12/04 11:22:25;;;;;;;;;;;;;;;3.35;100.00;100341.28;5116330;27;19919;-39
2023/12/04 11:24:50;;;;;;;;;;;;;;;3.32;100.00;100322.13;5114689;27;19927;-39
2023/12/04 11:27:16;;;;;;;;;;;;;;;3.37;100.00;100330.50;5115045;28;20370;-39
2023/12/04 11:29:42;;;;;;;;;;;;;;;3.36;100.00;100323.50;5111134;28;19920;-40
2023/12/04 11:32:07;;;;;;;;;;;;;;;3.23;100.00;100319.34;5116984;27;19920;-39
2023/12/04 11:34:32;;;;;;;;;;;;;;;3.27;100.00;100309.28;5114552;28;19920;-39
2023/12/04 11:36:58;;;;;;;;;;;;;;;3.25;100.00;100317.41;5112674;28;19924;-39
2023/12/04 11:39:24;;;;;;;;;;;;;;;3.20;100.00;100311.69;5122673;27;20349;-39
2023/12/04 11:41:49;;;;;;;;;;;;;;;3.24;100.00;100309.59;5125431;27;19991;-40
2023/12/04 11:44:15;;;;;;;;;;;;;;;3.21;100.00;100300.06;5117506;28;20008;-39
2023/12/04 11:46:54;;;;;;;;;;;;;;;3.10;100.00;100300.25;5117744;28;19929;-40
2023/12/04 11:49:28;;;;;;;;;;;;;;;2.94;100.00;100311.50;5112974;28;20209;-40
2023/12/04 11:51:54;;;;;;;;;;;;;;;2.89;100.00;100302.31;5121016;28;20362;-39
2023/12/04 11:54:22;;;;;;;;;;;;;;;2.80;100.00;100302.19;5120641;28;19920;-38
2023/12/04 11:56:56;;;;;;;;;;;;;;;2.77;100.00;100304.31;5120102;28;19920;-41
2023/12/04 11:59:22;;;;;;;;;;;;;;;2.72;100.00;100285.31;5117644;28;19999;-39
2023/12/04 12:01:49;;;;;;;;;;;;;;;2.68;100.00;100284.75;5116703;28;19950;-40
2023/12/04 12:04:17;;;;;;;;;;;;;;;2.65;100.00;100277.06;5103737;28;20262;-39
2023/12/04 12:06:42;;;;;;;;;;;;;;;2.62;100.00;100275.53;5111430;28;20019;-40
2023/12/04 12:09:07;;;;;;;;;;;;;;;2.68;100.00;100266.13;5112408;28;20393;-40
2023/12/04 12:11:33;;;;;;;;;;;;;;;2.75;100.00;100256.63;5106334;28;19924;-40
2023/12/04 12:13:59;;;;;;;;;;;;;;;2.92;100.00;100251.50;5095287;28;19938;-40
2023/12/04 12:16:25;;;;;;;;;;;;;;;2.98;100.00;100250.94;5108306;28;20294;-40
2023/12/04 12:18:50;;;;;;;;;;;;;;;3.11;100.00;100246.09;5117257;28;19915;-40
2023/12/04 12:21:16;;;;;;;;;;;;;;;3.12;100.00;100239.78;5117897;28;20282;-40
2023/12/04 12:23:41;;;;;;;;;;;;;;;3.14;100.00;100229.84;5118425;28;19928;-40
2023/12/04 12:26:06;;;;;;;;;;;;;;;3.13;100.00;100228.16;5116333;28;20397;-40